createdAt,value
2022-09-18T00:01:14.604Z,101650.50
2022-09-18T00:03:41.099Z,101648.81
2022-09-18T00:06:12.913Z,101650.50
2022-09-18T00:08:39.624Z,101640.97
2022-09-18T00:11:07.924Z,101647.13
2022-09-18T00:13:35.913Z,101646.19
2022-09-18T00:16:02.588Z,101650.59
2022-09-18T00:18:28.963Z,101649.75
2022-09-18T00:20:55.289Z,101651.66
2022-09-18T00:23:21.608Z,101655.09
2022-09-18T00:25:47.904Z,101653.31
2022-09-18T00:28:14.265Z,101647.25
2022-09-18T00:30:40.592Z,101648.22
2022-09-18T00:33:06.891Z,101647.25
2022-09-18T00:35:33.264Z,101646.53
2022-09-18T00:37:59.565Z,101651.66
2022-09-18T00:40:25.950Z,101645.59
2022-09-18T00:42:52.380Z,101649.97
2022-09-18T00:45:18.692Z,101649.03
2022-09-18T00:47:48.922Z,101652.56
2022-09-18T00:50:24.666Z,101640.47
2022-09-18T00:52:50.927Z,101656.06
2022-09-18T00:55:23.974Z,101656.16
2022-09-18T00:57:54.569Z,101651.03
2022-09-18T01:00:21.954Z,101654.47
2022-09-18T01:02:48.772Z,101660.53
2022-09-18T01:05:23.119Z,101654.47
2022-09-18T01:08:02.525Z,101638.78
2022-09-18T01:10:40.885Z,101639.72
2022-09-18T01:13:37.422Z,101639.72
2022-09-18T01:16:32.688Z,101640.59
2022-09-18T01:19:32.187Z,101640.69
2022-09-18T01:22:01.180Z,101641.50
2022-09-18T01:24:49.519Z,101641.50
2022-09-18T01:27:41.325Z,101646.00
2022-09-18T01:30:10.831Z,101642.44
2022-09-18T01:32:45.985Z,101640.75
2022-09-18T01:35:40.993Z,101642.66
2022-09-18T01:38:08.375Z,101647.78
2022-09-18T01:40:40.489Z,101637.31
2022-09-18T01:43:10.648Z,101644.34
2022-09-18T01:45:53.667Z,101641.84
2022-09-18T01:48:30.399Z,101636.59
2022-09-18T01:51:25.784Z,101633.13
2022-09-18T01:53:56.851Z,101643.59
2022-09-18T01:56:31.916Z,101648.00
2022-09-18T01:59:02.601Z,101637.53
2022-09-18T02:01:33.676Z,101646.19
2022-09-18T02:04:10.164Z,101651.44
2022-09-18T02:06:46.693Z,101660.13
2022-09-18T02:09:13.317Z,101664.50
2022-09-18T02:11:46.455Z,101653.22
2022-09-18T02:14:16.134Z,101640.16
2022-09-18T02:16:52.935Z,101632.41
2022-09-18T02:19:31.288Z,101635.84
2022-09-18T02:21:59.467Z,101634.09
2022-09-18T02:24:29.804Z,101627.19
2022-09-18T02:26:56.988Z,101625.41
2022-09-18T02:29:25.652Z,101623.75
2022-09-18T02:31:52.130Z,101626.38
2022-09-18T02:34:19.938Z,101619.34
2022-09-18T02:37:11.322Z,101620.28
2022-09-18T02:40:03.541Z,101622.91
2022-09-18T02:42:41.871Z,101622.06
2022-09-18T02:45:32.517Z,101622.06
2022-09-18T02:48:14.056Z,101601.16
2022-09-18T02:50:55.576Z,101609.94
2022-09-18T02:54:02.432Z,101611.72
2022-09-18T02:56:38.562Z,101610.03
2022-09-18T02:59:15.302Z,101610.88
2022-09-18T03:01:44.184Z,101610.03
2022-09-18T03:04:13.714Z,101614.34
2022-09-18T03:06:40.452Z,101610.03
2022-09-18T03:09:07.084Z,101609.22
2022-09-18T03:11:33.385Z,101606.59
2022-09-18T03:13:59.690Z,101602.19
2022-09-18T03:16:26.107Z,101604.91
2022-09-18T03:18:52.499Z,101601.38
2022-09-18T03:21:18.825Z,101602.31
2022-09-18T03:23:45.809Z,101604.09
2022-09-18T03:26:12.400Z,101619.78
2022-09-18T03:28:38.743Z,101629.25
2022-09-18T03:31:05.237Z,101623.22
2022-09-18T03:33:31.639Z,101618.91
2022-09-18T03:35:58.051Z,101617.16
2022-09-18T03:38:24.603Z,101608.47
2022-09-18T03:40:50.931Z,101601.59
2022-09-18T03:43:17.230Z,101599.81
2022-09-18T03:45:43.610Z,101587.66
2022-09-18T03:48:09.916Z,101585.91
2022-09-18T03:50:36.300Z,101586.75
2022-09-18T03:53:02.625Z,101586.75
2022-09-18T03:55:29.097Z,101586.84
2022-09-18T03:57:57.206Z,101584.22
2022-09-18T04:00:23.510Z,101585.16
2022-09-18T04:02:49.849Z,101576.50
2022-09-18T04:05:16.255Z,101579.00
2022-09-18T04:07:42.577Z,101573.78
2022-09-18T04:10:09.277Z,101576.50
2022-09-18T04:12:35.638Z,101583.41
2022-09-18T04:15:02.083Z,101581.63
2022-09-18T04:17:28.444Z,101587.78
2022-09-18T04:19:54.814Z,101590.50
2022-09-18T04:22:22.097Z,101593.00
2022-09-18T04:24:50.220Z,101598.22
2022-09-18T04:27:16.730Z,101598.34
2022-09-18T04:29:43.035Z,101600.13
2022-09-18T04:32:09.534Z,101600.13
2022-09-18T04:34:35.886Z,101596.75
2022-09-18T04:37:03.400Z,101592.38
2022-09-18T04:39:32.739Z,101590.72
2022-09-18T04:41:59.446Z,101601.06
2022-09-18T04:44:25.820Z,101588.94
2022-09-18T04:46:52.174Z,101588.94
2022-09-18T04:49:18.781Z,101580.25
2022-09-18T04:51:45.413Z,101576.81
2022-09-18T04:54:12.573Z,101589.78
2022-09-18T04:56:39.358Z,101586.31
2022-09-18T04:59:05.661Z,101588.19
2022-09-18T05:01:32.023Z,101578.59
2022-09-18T05:03:58.385Z,101577.75
2022-09-18T05:06:24.715Z,101572.53
2022-09-18T05:08:51.131Z,101576.94
2022-09-18T05:11:17.797Z,101582.97
2022-09-18T05:13:44.108Z,101570.75
2022-09-18T05:16:10.480Z,101572.53
2022-09-18T05:18:36.818Z,101565.63
2022-09-18T05:21:04.747Z,101566.47
2022-09-18T05:23:31.085Z,101573.47
2022-09-18T05:25:57.456Z,101570.03
2022-09-18T05:28:23.752Z,101568.34
2022-09-18T05:30:50.167Z,101583.09
2022-09-18T05:33:16.521Z,101580.47
2022-09-18T05:35:43.116Z,101570.84
2022-09-18T05:38:10.898Z,101577.97
2022-09-18T05:40:38.802Z,101570.03
2022-09-18T05:43:05.732Z,101572.75
2022-09-18T05:45:32.727Z,101572.75
2022-09-18T05:48:01.410Z,101581.41
2022-09-18T05:50:29.319Z,101587.59
2022-09-18T05:53:13.623Z,101587.59
2022-09-18T05:55:40.418Z,101585.91
2022-09-18T05:58:11.746Z,101590.22
2022-09-18T06:00:38.055Z,101585.06
2022-09-18T06:03:06.771Z,101577.22
2022-09-18T06:05:35.503Z,101562.50
2022-09-18T06:08:03.630Z,101564.16
2022-09-18T06:10:32.258Z,101555.50
2022-09-18T06:13:15.950Z,101552.88
2022-09-18T06:15:52.080Z,101550.28
2022-09-18T06:18:18.479Z,101556.44
2022-09-18T06:20:52.436Z,101556.25
2022-09-18T06:23:18.919Z,101556.25
2022-09-18T06:25:45.253Z,101546.63
2022-09-18T06:28:11.587Z,101555.38
2022-09-18T06:30:38.094Z,101557.91
2022-09-18T06:33:08.989Z,101554.47
2022-09-18T06:35:38.208Z,101552.66
2022-09-18T06:38:06.624Z,101556.13
2022-09-18T06:40:34.024Z,101562.19
2022-09-18T06:43:04.324Z,101570.13
2022-09-18T06:45:32.357Z,101566.78
2022-09-18T06:48:02.725Z,101571.06
2022-09-18T06:50:29.779Z,101578.78
2022-09-18T06:53:10.254Z,101580.47
2022-09-18T06:55:38.917Z,101567.31
2022-09-18T06:58:05.216Z,101567.31
2022-09-18T07:00:31.615Z,101564.69
2022-09-18T07:03:00.777Z,101567.19
2022-09-18T07:05:30.376Z,101568.03
2022-09-18T07:07:56.776Z,101567.91
2022-09-18T07:10:23.680Z,101572.22
2022-09-18T07:12:55.616Z,101570.63
2022-09-18T07:15:21.968Z,101579.22
2022-09-18T07:17:48.260Z,101577.44
2022-09-18T07:20:15.016Z,101565.22
2022-09-18T07:22:45.061Z,101566.88
2022-09-18T07:25:13.505Z,101566.06
2022-09-18T07:27:39.806Z,101565.13
2022-09-18T07:30:06.510Z,101570.44
2022-09-18T07:32:35.487Z,101566.16
2022-09-18T07:35:01.910Z,101566.06
2022-09-18T07:37:28.213Z,101570.44
2022-09-18T07:39:55.214Z,101578.28
2022-09-18T07:42:21.579Z,101593.00
2022-09-18T07:44:47.896Z,101588.63
2022-09-18T07:47:14.368Z,101578.19
2022-09-18T07:49:40.947Z,101571.28
2022-09-18T07:52:07.331Z,101571.28
2022-09-18T07:54:33.700Z,101578.19
2022-09-18T07:57:00.361Z,101576.28
2022-09-18T07:59:26.753Z,101568.56
2022-09-18T08:01:55.614Z,101568.56
2022-09-18T08:04:22.580Z,101573.69
2022-09-18T08:06:55.261Z,101565.00
2022-09-18T08:09:22.006Z,101567.63
2022-09-18T08:11:52.010Z,101568.44
2022-09-18T08:14:18.313Z,101565.84
2022-09-18T08:16:44.710Z,101558.94
2022-09-18T08:19:12.714Z,101557.28
2022-09-18T08:21:39.162Z,101559.78
2022-09-18T08:24:05.939Z,101558.09
2022-09-18T08:26:35.735Z,101570.25
2022-09-18T08:29:02.057Z,101568.56
2022-09-18T08:31:28.477Z,101559.78
2022-09-18T08:33:55.118Z,101551.09
2022-09-18T08:36:21.418Z,101564.91
2022-09-18T08:38:47.716Z,101566.56
2022-09-18T08:41:34.061Z,101560.50
2022-09-18T08:44:12.762Z,101564.78
2022-09-18T08:46:54.585Z,101563.00
2022-09-18T08:49:40.881Z,101556.00
2022-09-18T08:52:20.751Z,101556.84
2022-09-18T08:55:05.052Z,101556.00
2022-09-18T08:57:47.880Z,101549.00
2022-09-18T09:00:19.945Z,101549.84
2022-09-18T09:02:50.372Z,101554.25
2022-09-18T09:05:21.469Z,101559.34
2022-09-18T09:07:50.756Z,101571.59
2022-09-18T09:10:35.127Z,101580.25
2022-09-18T09:13:31.316Z,101577.75
2022-09-18T09:16:14.084Z,101578.59
2022-09-18T09:18:55.755Z,101575.97
2022-09-18T09:21:24.404Z,101567.31
2022-09-18T09:24:25.450Z,101564.69
2022-09-18T09:26:55.539Z,101568.13
2022-09-18T09:29:29.254Z,101566.38
2022-09-18T09:32:06.062Z,101556.84
2022-09-18T09:34:40.779Z,101568.13
2022-09-18T09:37:19.574Z,101569.81
2022-09-18T09:39:52.117Z,101566.25
2022-09-18T09:42:28.848Z,101569.59
2022-09-18T09:45:04.424Z,101558.31
2022-09-18T09:47:58.794Z,101554.75
2022-09-18T09:50:39.366Z,101553.91
2022-09-18T09:53:11.388Z,101556.53
2022-09-18T09:55:48.284Z,101555.81
2022-09-18T09:58:38.282Z,101553.91
2022-09-18T10:01:13.766Z,101555.59
2022-09-18T10:04:11.380Z,101556.41
2022-09-18T10:06:56.734Z,101559.84
2022-09-18T10:10:06.503Z,101566.88
2022-09-18T10:12:47.451Z,101568.56
2022-09-18T10:15:19.302Z,101572.00
2022-09-18T10:17:49.046Z,101567.59
2022-09-18T10:20:18.260Z,101577.22
2022-09-18T10:22:46.565Z,101566.88
2022-09-18T10:25:27.092Z,101569.47
2022-09-18T10:27:53.679Z,101564.16
2022-09-18T10:30:20.100Z,101568.56
2022-09-18T10:32:46.486Z,101570.19
2022-09-18T10:35:30.861Z,101567.59
2022-09-18T10:37:58.071Z,101563.31
2022-09-18T10:40:40.383Z,101575.44
2022-09-18T10:43:15.355Z,101565.94
2022-09-18T10:45:41.874Z,101564.97
2022-09-18T10:48:19.782Z,101564.97
2022-09-18T10:50:57.442Z,101557.25
2022-09-18T10:53:34.724Z,101572.91
2022-09-18T10:56:16.108Z,101579.00
2022-09-18T10:58:42.914Z,101566.88
2022-09-18T11:01:10.857Z,101567.69
2022-09-18T11:04:00.704Z,101561.66
2022-09-18T11:06:29.345Z,101555.59
2022-09-18T11:08:59.034Z,101564.25
2022-09-18T11:11:34.631Z,101563.31
2022-09-18T11:14:07.893Z,101577.09
2022-09-18T11:16:41.857Z,101575.44
2022-09-18T11:19:11.290Z,101575.44
2022-09-18T11:21:52.382Z,101571.88
2022-09-18T11:24:25.254Z,101558.81
2022-09-18T11:26:57.131Z,101557.13
2022-09-18T11:29:39.471Z,101557.13
2022-09-18T11:32:30.360Z,101561.53
2022-09-18T11:35:01.398Z,101561.53
2022-09-18T11:37:39.375Z,101552.00
2022-09-18T11:40:08.118Z,101560.72
2022-09-18T11:42:43.220Z,101558.91
2022-09-18T11:45:24.619Z,101557.13
2022-09-18T11:48:26.387Z,101546.78
2022-09-18T11:50:56.229Z,101548.47
2022-09-18T11:53:27.200Z,101543.34
2022-09-18T11:56:12.937Z,101541.66
2022-09-18T11:58:56.122Z,101543.47
2022-09-18T12:01:48.608Z,101550.47
2022-09-18T12:04:47.135Z,101549.63
2022-09-18T12:07:38.256Z,101541.78
2022-09-18T12:10:18.159Z,101548.78
2022-09-18T12:12:50.275Z,101540.13
2022-09-18T12:15:23.694Z,101545.34
2022-09-18T12:17:55.191Z,101542.84
2022-09-18T12:20:31.231Z,101545.47
2022-09-18T12:22:59.898Z,101554.84
2022-09-18T12:26:00.224Z,101547.97
2022-09-18T12:28:29.522Z,101550.47
2022-09-18T12:31:06.239Z,101551.31
2022-09-18T12:34:03.867Z,101555.69
2022-09-18T12:37:05.470Z,101558.31
2022-09-18T12:39:50.442Z,101564.59
2022-09-18T12:42:32.100Z,101563.66
2022-09-18T12:45:14.906Z,101559.34
2022-09-18T12:48:06.916Z,101555.91
2022-09-18T12:50:59.484Z,101560.28
2022-09-18T12:54:06.488Z,101561.16
2022-09-18T12:56:49.135Z,101569.91
2022-09-18T12:59:27.178Z,101561.22
2022-09-18T13:02:02.758Z,101568.13
2022-09-18T13:05:07.075Z,101565.63
2022-09-18T13:07:49.338Z,101567.31
2022-09-18T13:10:24.216Z,101562.06
2022-09-18T13:13:16.504Z,101575.97
2022-09-18T13:16:06.668Z,101566.38
2022-09-18T13:18:53.190Z,101565.50
2022-09-18T13:21:41.669Z,101555.06
2022-09-18T13:24:15.527Z,101556.84
2022-09-18T13:26:45.067Z,101553.38
2022-09-18T13:29:49.137Z,101553.38
2022-09-18T13:32:37.726Z,101555.06
2022-09-18T13:35:13.367Z,101559.47
2022-09-18T13:37:41.475Z,101564.69
2022-09-18T13:40:44.341Z,101565.63
2022-09-18T13:43:28.735Z,101575.97
2022-09-18T13:46:06.838Z,101574.28
2022-09-18T13:48:45.684Z,101577.88
2022-09-18T13:51:23.307Z,101577.97
2022-09-18T13:54:14.075Z,101571.88
2022-09-18T13:57:17.103Z,101571.78
2022-09-18T14:00:07.575Z,101570.13
2022-09-18T14:02:36.524Z,101564.03
2022-09-18T14:05:32.698Z,101552.78
2022-09-18T14:08:37.019Z,101551.94
2022-09-18T14:11:17.754Z,101558.00
2022-09-18T14:13:53.843Z,101564.91
2022-09-18T14:16:20.139Z,101559.78
2022-09-18T14:18:49.093Z,101547.53
2022-09-18T14:21:18.467Z,101542.31
2022-09-18T14:23:45.876Z,101548.38
2022-09-18T14:26:35.923Z,101539.72
2022-09-18T14:29:12.247Z,101557.88
2022-09-18T14:31:44.695Z,101560.63
2022-09-18T14:34:13.835Z,101562.28
2022-09-18T14:36:45.010Z,101554.56
2022-09-18T14:39:30.932Z,101537.22
2022-09-18T14:42:02.745Z,101539.81
2022-09-18T14:44:32.315Z,101547.66
2022-09-18T14:47:03.983Z,101549.56
2022-09-18T14:49:36.821Z,101551.31
2022-09-18T14:52:18.896Z,101555.72
2022-09-18T14:54:47.672Z,101554.84
2022-09-18T14:57:17.460Z,101552.25
2022-09-18T14:59:47.946Z,101558.31
2022-09-18T15:02:22.844Z,101558.44
2022-09-18T15:04:49.718Z,101556.75
2022-09-18T15:07:18.379Z,101552.47
2022-09-18T15:09:48.888Z,101549.00
2022-09-18T15:12:18.357Z,101544.63
2022-09-18T15:14:47.701Z,101555.91
2022-09-18T15:17:24.168Z,101559.34
2022-09-18T15:20:00.639Z,101568.13
2022-09-18T15:22:29.239Z,101555.91
2022-09-18T15:24:58.497Z,101559.34
2022-09-18T15:27:24.974Z,101557.69
2022-09-18T15:29:59.251Z,101552.47
2022-09-18T15:32:30.739Z,101560.28
2022-09-18T15:34:58.543Z,101553.31
2022-09-18T15:37:27.788Z,101561.16
2022-09-18T15:40:08.154Z,101565.53
2022-09-18T15:42:51.191Z,101564.69
2022-09-18T15:45:21.711Z,101568.22
2022-09-18T15:47:48.668Z,101569.91
2022-09-18T15:50:15.265Z,101576.94
2022-09-18T15:52:43.741Z,101585.59
2022-09-18T15:55:10.163Z,101586.41
2022-09-18T15:57:37.806Z,101579.66
2022-09-18T16:00:10.612Z,101597.09
2022-09-18T16:02:39.366Z,101590.09
2022-09-18T16:05:14.815Z,101600.53
2022-09-18T16:07:58.106Z,101598.75
2022-09-18T16:10:42.367Z,101584.88
2022-09-18T16:13:11.645Z,101589.13
2022-09-18T16:15:37.999Z,101577.75
2022-09-18T16:18:27.143Z,101576.94
2022-09-18T16:20:57.698Z,101559.47
2022-09-18T16:23:51.190Z,101556.84
2022-09-18T16:26:30.989Z,101545.47
2022-09-18T16:29:03.679Z,101542.88
2022-09-18T16:31:33.187Z,101542.97
2022-09-18T16:34:01.932Z,101541.19
2022-09-18T16:36:38.658Z,101558.53
2022-09-18T16:39:16.387Z,101563.75
2022-09-18T16:41:43.565Z,101553.31
2022-09-18T16:44:11.975Z,101558.53
2022-09-18T16:46:43.110Z,101555.91
2022-09-18T16:49:11.847Z,101566.38
2022-09-18T16:51:38.255Z,101563.66
2022-09-18T16:54:04.974Z,101567.19
2022-09-18T16:56:47.175Z,101561.03
2022-09-18T16:59:13.474Z,101565.41
2022-09-18T17:02:00.405Z,101569.69
2022-09-18T17:04:27.191Z,101573.25
2022-09-18T17:06:53.971Z,101573.25
2022-09-18T17:09:22.919Z,101569.81
2022-09-18T17:11:49.683Z,101573.25
2022-09-18T17:14:16.015Z,101571.59
2022-09-18T17:16:44.856Z,101579.44
2022-09-18T17:19:12.026Z,101567.19
2022-09-18T17:21:38.853Z,101580.25
2022-09-18T17:24:05.682Z,101578.47
2022-09-18T17:26:32.478Z,101577.66
2022-09-18T17:28:59.130Z,101571.59
2022-09-18T17:31:26.403Z,101587.28
2022-09-18T17:33:53.939Z,101589.88
2022-09-18T17:36:21.352Z,101579.44
2022-09-18T17:38:48.469Z,101588.31
2022-09-18T17:41:16.702Z,101591.75
2022-09-18T17:43:44.983Z,101597.84
2022-09-18T17:46:13.175Z,101596.16
2022-09-18T17:48:39.763Z,101591.75
2022-09-18T17:51:11.932Z,101605.66
2022-09-18T17:53:40.405Z,101603.88
2022-09-18T17:56:10.155Z,101604.81
2022-09-18T17:58:40.324Z,101605.66
2022-09-18T18:01:20.326Z,101613.59
2022-09-18T18:03:48.388Z,101613.59
2022-09-18T18:06:21.014Z,101614.53
2022-09-18T18:08:48.119Z,101620.81
2022-09-18T18:11:16.681Z,101613.91
2022-09-18T18:13:45.263Z,101623.53
2022-09-18T18:16:16.652Z,101625.31
2022-09-18T18:18:43.363Z,101629.69
2022-09-18T18:21:10.691Z,101636.69
2022-09-18T18:23:40.450Z,101630.63
2022-09-18T18:26:08.990Z,101646.31
2022-09-18T18:28:37.412Z,101635.00
2022-09-18T18:31:06.868Z,101646.31
2022-09-18T18:33:34.843Z,101641.09
2022-09-18T18:36:17.327Z,101644.63
2022-09-18T18:38:45.685Z,101647.31
2022-09-18T18:41:14.072Z,101646.50
2022-09-18T18:43:40.975Z,101658.59
2022-09-18T18:46:14.614Z,101657.88
2022-09-18T18:48:42.459Z,101665.69
2022-09-18T18:51:11.505Z,101667.44
2022-09-18T18:53:38.467Z,101677.84
2022-09-18T18:56:07.528Z,101676.97
2022-09-18T18:58:34.602Z,101677.84
2022-09-18T19:01:15.620Z,101691.81
2022-09-18T19:03:48.523Z,101688.34
2022-09-18T19:06:15.382Z,101693.50
2022-09-18T19:08:42.875Z,101688.34
2022-09-18T19:11:09.186Z,101697.88
2022-09-18T19:13:41.115Z,101703.09
2022-09-18T19:16:07.725Z,101702.25
2022-09-18T19:18:34.187Z,101701.41
2022-09-18T19:21:00.571Z,101706.63
2022-09-18T19:23:26.899Z,101705.72
2022-09-18T19:25:58.310Z,101703.19
2022-09-18T19:28:24.650Z,101713.53
2022-09-18T19:30:51.992Z,101709.25
2022-09-18T19:33:20.882Z,101707.59
2022-09-18T19:35:47.223Z,101712.81
2022-09-18T19:38:16.108Z,101715.44
2022-09-18T19:40:42.686Z,101711.97
2022-09-18T19:43:14.842Z,101715.53
2022-09-18T19:45:43.763Z,101712.91
2022-09-18T19:48:21.554Z,101711.25
2022-09-18T19:50:48.035Z,101720.75
2022-09-18T19:53:15.148Z,101721.69
2022-09-18T19:55:47.530Z,101728.69
2022-09-18T19:58:15.660Z,101731.31
2022-09-18T20:00:43.728Z,101732.97
2022-09-18T20:03:10.730Z,101735.56
2022-09-18T20:05:39.354Z,101735.56
2022-09-18T20:08:07.260Z,101735.56
2022-09-18T20:10:35.503Z,101745.91
2022-09-18T20:13:01.879Z,101748.53
2022-09-18T20:15:28.545Z,101742.69
2022-09-18T20:17:58.335Z,101746.22
2022-09-18T20:20:25.787Z,101743.59
2022-09-18T20:22:54.131Z,101741.09
2022-09-18T20:25:20.990Z,101742.78
2022-09-18T20:27:47.552Z,101748.94
2022-09-18T20:30:14.166Z,101756.78
2022-09-18T20:32:40.592Z,101761.16
2022-09-18T20:35:07.332Z,101762.09
2022-09-18T20:37:33.910Z,101759.47
2022-09-18T20:40:01.979Z,101763.88
2022-09-18T20:42:34.470Z,101767.31
2022-09-18T20:45:04.426Z,101765.63
2022-09-18T20:47:36.830Z,101765.53
2022-09-18T20:50:11.478Z,101765.53
2022-09-18T20:52:41.343Z,101766.50
2022-09-18T20:55:12.326Z,101778.69
2022-09-18T20:57:40.424Z,101774.31
2022-09-18T21:00:10.160Z,101776.19
2022-09-18T21:02:37.616Z,101763.22
2022-09-18T21:05:10.894Z,101777.13
2022-09-18T21:07:37.339Z,101777.25
2022-09-18T21:10:03.797Z,101780.78
2022-09-18T21:12:38.147Z,101786.09
2022-09-18T21:15:07.361Z,101784.31
2022-09-18T21:17:33.949Z,101779.19
2022-09-18T21:20:02.081Z,101784.31
2022-09-18T21:22:30.226Z,101785.34
2022-09-18T21:24:56.528Z,101788.81
2022-09-18T21:27:22.891Z,101782.72
2022-09-18T21:29:49.182Z,101787.94
2022-09-18T21:32:15.614Z,101786.28
2022-09-18T21:34:42.346Z,101783.69
2022-09-18T21:37:11.378Z,101791.53
2022-09-18T21:39:38.868Z,101797.66
2022-09-18T21:42:07.301Z,101781.16
2022-09-18T21:44:37.519Z,101787.22
2022-09-18T21:47:07.741Z,101791.63
2022-09-18T21:49:34.864Z,101789.09
2022-09-18T21:52:04.198Z,101793.47
2022-09-18T21:54:31.870Z,101791.81
2022-09-18T21:56:58.956Z,101798.78
2022-09-18T21:59:27.494Z,101801.41
2022-09-18T22:01:56.804Z,101811.03
2022-09-18T22:04:27.915Z,101812.78
2022-09-18T22:06:57.010Z,101816.34
2022-09-18T22:09:26.527Z,101813.72
2022-09-18T22:11:53.859Z,101813.72
2022-09-18T22:14:32.186Z,101813.72
2022-09-18T22:17:00.915Z,101818.94
2022-09-18T22:19:27.836Z,101818.09
2022-09-18T22:21:54.140Z,101813.81
2022-09-18T22:24:24.732Z,101819.03
2022-09-18T22:26:54.865Z,101822.47
2022-09-18T22:29:24.079Z,101821.66
2022-09-18T22:31:51.367Z,101829.50
2022-09-18T22:34:23.246Z,101828.72
2022-09-18T22:36:50.347Z,101834.81
2022-09-18T22:39:18.902Z,101834.81
2022-09-18T22:41:46.450Z,101845.25
2022-09-18T22:44:14.335Z,101835.75
2022-09-18T22:46:42.948Z,101834.91
2022-09-18T22:49:15.369Z,101830.50
2022-09-18T22:51:41.752Z,101844.50
2022-09-18T22:54:08.487Z,101839.28
2022-09-18T22:56:49.674Z,101841.06
2022-09-18T22:59:18.186Z,101831.53
2022-09-18T23:01:58.235Z,101841.97
2022-09-18T23:04:29.530Z,101850.66
2022-09-18T23:06:57.154Z,101853.28
2022-09-18T23:09:23.607Z,101848.97
2022-09-18T23:11:52.884Z,101848.97
2022-09-18T23:14:21.882Z,101855.03
2022-09-18T23:16:49.010Z,101857.75
2022-09-18T23:19:24.208Z,101854.41
2022-09-18T23:21:50.690Z,101859.53
2022-09-18T23:24:18.058Z,101864.75
2022-09-18T23:26:46.856Z,101871.72
2022-09-18T23:29:20.543Z,101862.22
2022-09-18T23:31:52.928Z,101866.50
2022-09-18T23:34:23.382Z,101871.72
2022-09-18T23:36:51.956Z,101864.84
2022-09-18T23:39:24.643Z,101860.53
2022-09-18T23:41:51.716Z,101855.22
2022-09-18T23:44:19.885Z,101857.94
2022-09-18T23:46:46.933Z,101864.06
2022-09-18T23:49:14.294Z,101852.72
2022-09-18T23:51:48.524Z,101855.31
2022-09-18T23:54:20.753Z,101851.13
2022-09-18T23:56:47.998Z,101861.56
2022-09-18T23:59:18.592Z,101864.06
